createdAt,value
2017-09-08T00:00:01.187Z,996.84
2017-09-08T00:01:01.205Z,996.84
2017-09-08T00:02:01.231Z,996.87
2017-09-08T00:03:01.270Z,996.87
2017-09-08T00:04:01.270Z,996.86
2017-09-08T00:05:01.297Z,996.87
2017-09-08T00:06:01.336Z,996.87
2017-09-08T00:07:01.336Z,996.84
2017-09-08T00:08:01.357Z,996.80
2017-09-08T00:09:01.382Z,996.78
2017-09-08T00:10:01.401Z,996.75
2017-09-08T00:11:01.432Z,996.74
2017-09-08T00:12:01.444Z,996.71
2017-09-08T00:13:01.466Z,996.71
2017-09-08T00:14:01.620Z,996.69
2017-09-08T00:15:01.506Z,996.64
2017-09-08T00:16:01.527Z,996.64
2017-09-08T00:17:01.563Z,996.61
2017-09-08T00:18:01.571Z,996.65
2017-09-08T00:19:01.592Z,996.61
2017-09-08T00:20:01.616Z,996.60
2017-09-08T00:21:01.635Z,996.57
2017-09-08T00:22:01.661Z,996.60
2017-09-08T00:23:01.680Z,996.60
2017-09-08T00:24:01.700Z,996.58
2017-09-08T00:25:01.751Z,996.59
2017-09-08T00:26:01.749Z,996.54
2017-09-08T00:27:01.769Z,996.54
2017-09-08T00:28:01.805Z,996.56
2017-09-08T00:29:01.811Z,996.50
2017-09-08T00:30:01.833Z,996.51
2017-09-08T00:31:01.866Z,996.49
2017-09-08T00:32:01.880Z,996.49
2017-09-08T00:33:01.894Z,996.46
2017-09-08T00:34:01.919Z,996.40
2017-09-08T00:35:01.937Z,996.43
2017-09-08T00:36:01.961Z,996.47
2017-09-08T00:37:01.981Z,996.42
2017-09-08T00:38:02.013Z,996.42
2017-09-08T00:39:02.025Z,996.45
2017-09-08T00:40:02.047Z,996.41
2017-09-08T00:41:02.074Z,996.41
2017-09-08T00:42:02.103Z,996.35
2017-09-08T00:43:02.113Z,996.35
2017-09-08T00:44:02.148Z,996.34
2017-09-08T00:45:02.153Z,996.32
2017-09-08T00:46:02.177Z,996.30
2017-09-08T00:47:02.196Z,996.28
2017-09-08T00:48:02.229Z,996.26
2017-09-08T00:49:02.238Z,996.28
2017-09-08T00:50:02.276Z,996.32
2017-09-08T00:51:02.280Z,996.28
2017-09-08T00:52:02.434Z,996.24
2017-09-08T00:53:02.338Z,996.28
2017-09-08T00:54:02.344Z,996.23
2017-09-08T00:55:02.398Z,996.29
2017-09-08T00:56:02.393Z,996.20
2017-09-08T00:57:02.411Z,996.15
2017-09-08T00:58:02.437Z,996.12
2017-09-08T00:59:02.470Z,996.10
2017-09-08T01:00:02.474Z,996.10
2017-09-08T01:01:02.501Z,996.08
2017-09-08T01:02:02.516Z,996.13
2017-09-08T01:03:02.539Z,996.15
2017-09-08T01:04:02.586Z,996.10
2017-09-08T01:05:02.582Z,996.06
2017-09-08T01:06:02.602Z,996.02
2017-09-08T01:07:02.748Z,996.02
2017-09-08T01:08:02.675Z,995.99
2017-09-08T01:09:02.667Z,995.99
2017-09-08T01:10:02.725Z,995.97
2017-09-08T01:11:02.714Z,995.97
2017-09-08T01:12:02.736Z,995.96
2017-09-08T01:13:02.758Z,995.92
2017-09-08T01:14:02.775Z,995.91
2017-09-08T01:15:02.808Z,995.91
2017-09-08T01:16:02.823Z,995.90
2017-09-08T01:17:02.841Z,995.88
2017-09-08T01:18:02.865Z,995.86
2017-09-08T01:19:02.890Z,995.89
2017-09-08T01:20:02.906Z,995.84
2017-09-08T01:21:02.924Z,995.84
2017-09-08T01:22:02.953Z,995.85
2017-09-08T01:23:02.971Z,995.84
2017-09-08T01:24:02.997Z,995.82
2017-09-08T01:25:03.011Z,995.79
2017-09-08T01:26:03.036Z,995.78
2017-09-08T01:27:03.069Z,995.75
2017-09-08T01:28:03.077Z,995.76
2017-09-08T01:29:03.102Z,995.76
2017-09-08T01:30:03.125Z,995.75
2017-09-08T01:31:03.140Z,995.72
2017-09-08T01:32:03.167Z,995.76
2017-09-08T01:33:03.204Z,995.75
2017-09-08T01:34:03.233Z,995.71
2017-09-08T01:35:03.228Z,995.75
2017-09-08T01:36:03.272Z,995.72
2017-09-08T01:37:03.277Z,995.67
2017-09-08T01:38:03.303Z,995.68
2017-09-08T01:39:03.315Z,995.68
2017-09-08T01:40:03.339Z,995.63
2017-09-08T01:41:03.359Z,995.65
2017-09-08T01:42:03.378Z,995.64
2017-09-08T01:43:03.462Z,995.67
2017-09-08T01:44:03.424Z,995.61
2017-09-08T01:45:03.448Z,995.61
2017-09-08T01:46:03.467Z,995.59
2017-09-08T01:47:03.487Z,995.58
2017-09-08T01:48:03.506Z,995.54
2017-09-08T01:49:03.537Z,995.55
2017-09-08T01:50:03.557Z,995.55
2017-09-08T01:51:03.592Z,995.53
2017-09-08T01:52:03.597Z,995.58
2017-09-08T01:53:03.628Z,995.53
2017-09-08T01:54:03.643Z,995.54
2017-09-08T01:55:03.658Z,995.51
2017-09-08T01:56:03.686Z,995.48
2017-09-08T01:57:03.703Z,995.44
2017-09-08T01:58:03.724Z,995.43
2017-09-08T01:59:03.749Z,995.39
2017-09-08T02:00:03.766Z,995.38
2017-09-08T02:01:03.797Z,995.40
2017-09-08T02:02:03.814Z,995.37
2017-09-08T02:03:03.844Z,995.36
2017-09-08T02:04:03.856Z,995.35
2017-09-08T02:05:03.878Z,995.30
2017-09-08T02:06:03.896Z,995.30
2017-09-08T02:07:03.919Z,995.32
2017-09-08T02:08:03.942Z,995.26
2017-09-08T02:09:03.956Z,995.29
2017-09-08T02:10:03.993Z,995.28
2017-09-08T02:11:04.009Z,995.26
2017-09-08T02:12:04.026Z,995.23
2017-09-08T02:13:04.049Z,995.24
2017-09-08T02:14:04.071Z,995.19
2017-09-08T02:15:04.091Z,995.21
2017-09-08T02:16:04.112Z,995.21
2017-09-08T02:17:04.132Z,995.20
2017-09-08T02:18:04.156Z,995.20
2017-09-08T02:19:04.175Z,995.19
2017-09-08T02:20:04.218Z,995.19
2017-09-08T02:21:04.217Z,995.16
2017-09-08T02:22:04.249Z,995.13
2017-09-08T02:23:04.261Z,995.11
2017-09-08T02:24:04.287Z,995.14
2017-09-08T02:25:04.305Z,995.10
2017-09-08T02:26:04.329Z,995.10
2017-09-08T02:27:04.349Z,995.12
2017-09-08T02:28:04.375Z,995.11
2017-09-08T02:29:04.395Z,995.07
2017-09-08T02:30:04.415Z,995.09
2017-09-08T02:31:04.445Z,995.07
2017-09-08T02:32:04.452Z,995.04
2017-09-08T02:33:04.481Z,994.97
2017-09-08T02:34:04.508Z,995.00
2017-09-08T02:35:04.526Z,994.97
2017-09-08T02:36:04.545Z,994.96
2017-09-08T02:37:04.581Z,994.93
2017-09-08T02:38:04.585Z,994.84
2017-09-08T02:39:04.608Z,994.84
2017-09-08T02:40:04.628Z,994.83
2017-09-08T02:41:04.663Z,994.79
2017-09-08T02:42:04.673Z,994.80
2017-09-08T02:43:04.707Z,994.76
2017-09-08T02:44:04.713Z,994.76
2017-09-08T02:45:04.764Z,994.74
2017-09-08T02:46:04.884Z,994.74
2017-09-08T02:47:04.779Z,994.74
2017-09-08T02:48:04.814Z,994.73
2017-09-08T02:49:04.846Z,994.72
2017-09-08T02:50:04.845Z,994.66
2017-09-08T02:51:04.869Z,994.69
2017-09-08T02:52:04.894Z,994.66
2017-09-08T02:53:04.909Z,994.66
2017-09-08T02:54:04.934Z,994.62
2017-09-08T02:55:04.950Z,994.60
2017-09-08T02:56:05.112Z,994.61
2017-09-08T02:57:04.995Z,994.58
2017-09-08T02:58:05.037Z,994.56
2017-09-08T02:59:05.058Z,994.58
2017-09-08T03:00:05.071Z,994.57
2017-09-08T03:01:05.081Z,994.54
2017-09-08T03:02:05.118Z,994.52
2017-09-08T03:03:05.124Z,994.54
2017-09-08T03:04:05.149Z,994.54
2017-09-08T03:05:05.170Z,994.58
2017-09-08T03:06:05.191Z,994.55
2017-09-08T03:07:05.228Z,994.52
2017-09-08T03:08:05.236Z,994.49
2017-09-08T03:09:05.253Z,994.44
2017-09-08T03:10:05.286Z,994.42
2017-09-08T03:11:05.301Z,994.38
2017-09-08T03:12:05.321Z,994.39
2017-09-08T03:13:05.342Z,994.35
2017-09-08T03:14:05.371Z,994.30
2017-09-08T03:15:05.382Z,994.26
2017-09-08T03:16:05.433Z,994.24
2017-09-08T03:17:05.447Z,994.25
2017-09-08T03:18:05.477Z,994.23
2017-09-08T03:19:05.469Z,994.22
2017-09-08T03:20:05.492Z,994.20
2017-09-08T03:21:05.518Z,994.24
2017-09-08T03:22:05.541Z,994.21
2017-09-08T03:23:05.557Z,994.20
2017-09-08T03:24:05.582Z,994.16
2017-09-08T03:25:05.600Z,994.14
2017-09-08T03:26:05.621Z,994.19
2017-09-08T03:27:05.643Z,994.16
2017-09-08T03:28:05.692Z,994.17
2017-09-08T03:29:05.685Z,994.15
2017-09-08T03:30:05.730Z,994.14
2017-09-08T03:31:05.743Z,994.15
2017-09-08T03:32:05.750Z,994.11
2017-09-08T03:33:05.771Z,994.14
2017-09-08T03:34:05.798Z,994.13
2017-09-08T03:35:05.822Z,994.12
2017-09-08T03:36:05.842Z,994.13
2017-09-08T03:37:05.858Z,994.09
2017-09-08T03:38:05.891Z,994.10
2017-09-08T03:39:05.931Z,994.08
2017-09-08T03:40:05.942Z,994.09
2017-09-08T03:41:05.948Z,994.06
2017-09-08T03:42:05.966Z,994.07
2017-09-08T03:43:05.987Z,994.05
2017-09-08T03:44:06.011Z,994.02
2017-09-08T03:45:06.049Z,994.00
2017-09-08T03:46:06.071Z,993.95
2017-09-08T03:47:06.078Z,993.89
2017-09-08T03:48:06.105Z,993.88
2017-09-08T03:49:06.121Z,993.85
2017-09-08T03:50:06.136Z,993.81
2017-09-08T03:51:06.165Z,993.82
2017-09-08T03:52:06.183Z,993.78
2017-09-08T03:53:06.210Z,993.74
2017-09-08T03:54:06.223Z,993.72
2017-09-08T03:55:06.251Z,993.66
2017-09-08T03:56:06.269Z,993.65
2017-09-08T03:57:06.290Z,993.64
2017-09-08T03:58:06.311Z,993.64
2017-09-08T03:59:06.336Z,993.63
2017-09-08T04:00:06.357Z,993.64
2017-09-08T04:01:06.382Z,993.62
2017-09-08T04:02:06.412Z,993.59
2017-09-08T04:03:06.428Z,993.54
2017-09-08T04:04:06.440Z,993.57
2017-09-08T04:05:06.469Z,993.56
2017-09-08T04:06:06.505Z,993.55
2017-09-08T04:07:06.508Z,993.53
2017-09-08T04:08:06.535Z,993.52
2017-09-08T04:09:06.554Z,993.49
2017-09-08T04:10:06.571Z,993.45
2017-09-08T04:11:06.613Z,993.47
2017-09-08T04:12:06.616Z,993.45
2017-09-08T04:13:06.637Z,993.46
2017-09-08T04:14:06.657Z,993.49
2017-09-08T04:15:06.695Z,993.50
2017-09-08T04:16:06.704Z,993.45
2017-09-08T04:17:06.721Z,993.44
2017-09-08T04:18:06.743Z,993.43
2017-09-08T04:19:06.768Z,993.44
2017-09-08T04:20:06.785Z,993.43
2017-09-08T04:21:06.813Z,993.42
2017-09-08T04:22:06.832Z,993.38
2017-09-08T04:23:06.858Z,993.39
2017-09-08T04:24:06.870Z,993.41
2017-09-08T04:25:06.899Z,993.40
2017-09-08T04:26:06.917Z,993.36
2017-09-08T04:27:06.938Z,993.33
2017-09-08T04:28:06.968Z,993.36
2017-09-08T04:29:06.978Z,993.38
2017-09-08T04:30:07.000Z,993.33
2017-09-08T04:31:07.034Z,993.32
2017-09-08T04:32:07.050Z,993.35
2017-09-08T04:33:07.105Z,993.28
2017-09-08T04:34:07.089Z,993.29
2017-09-08T04:35:07.114Z,993.29
2017-09-08T04:36:07.135Z,993.23
2017-09-08T04:37:07.162Z,993.22
2017-09-08T04:38:07.179Z,993.18
2017-09-08T04:39:07.202Z,993.18
2017-09-08T04:40:07.221Z,993.14
2017-09-08T04:41:07.243Z,993.09
2017-09-08T04:42:07.266Z,993.08
2017-09-08T04:43:07.301Z,993.08
2017-09-08T04:44:07.307Z,993.14
2017-09-08T04:45:07.329Z,993.15
2017-09-08T04:46:07.353Z,993.12
2017-09-08T04:47:07.370Z,993.14
2017-09-08T04:48:07.397Z,993.09
2017-09-08T04:49:07.413Z,993.06
2017-09-08T04:50:07.435Z,993.05
2017-09-08T04:51:07.457Z,993.01
2017-09-08T04:52:07.500Z,993.03
2017-09-08T04:53:07.500Z,993.07
2017-09-08T04:54:07.528Z,993.06
2017-09-08T04:55:07.543Z,993.01
2017-09-08T04:56:07.562Z,992.98
2017-09-08T04:57:07.592Z,992.97
2017-09-08T04:58:07.657Z,992.91
2017-09-08T04:59:07.645Z,992.91
2017-09-08T05:00:07.651Z,992.92
2017-09-08T05:01:07.699Z,992.91
2017-09-08T05:02:07.692Z,992.95
2017-09-08T05:03:07.713Z,992.96
2017-09-08T05:04:07.737Z,992.93
2017-09-08T05:05:07.778Z,992.92
2017-09-08T05:06:07.785Z,992.87
2017-09-08T05:07:07.804Z,992.88
2017-09-08T05:08:07.830Z,992.89
2017-09-08T05:09:07.851Z,992.90
2017-09-08T05:10:07.870Z,992.89
2017-09-08T05:11:07.892Z,992.88
2017-09-08T05:12:07.913Z,992.86
2017-09-08T05:13:07.936Z,992.86
2017-09-08T05:14:07.952Z,992.86
2017-09-08T05:15:07.973Z,992.87
2017-09-08T05:16:08.000Z,992.85
2017-09-08T05:17:08.036Z,992.88
2017-09-08T05:18:08.039Z,992.84
2017-09-08T05:19:08.062Z,992.85
2017-09-08T05:20:08.085Z,992.77
2017-09-08T05:21:08.103Z,992.79
2017-09-08T05:22:08.137Z,992.79
2017-09-08T05:23:08.152Z,992.75
2017-09-08T05:24:08.172Z,992.75
2017-09-08T05:25:08.189Z,992.77
2017-09-08T05:26:08.209Z,992.70
2017-09-08T05:27:08.238Z,992.74
2017-09-08T05:28:08.257Z,992.71
2017-09-08T05:29:08.285Z,992.69
2017-09-08T05:30:08.300Z,992.68
2017-09-08T05:31:08.318Z,992.71
2017-09-08T05:32:08.340Z,992.67
2017-09-08T05:33:08.362Z,992.65
2017-09-08T05:34:08.398Z,992.60
2017-09-08T05:35:08.404Z,992.65
2017-09-08T05:36:08.427Z,992.58
2017-09-08T05:37:08.449Z,992.62
2017-09-08T05:38:08.478Z,992.66
2017-09-08T05:39:08.492Z,992.70
2017-09-08T05:40:08.513Z,992.68
2017-09-08T05:41:08.564Z,992.64
2017-09-08T05:42:08.558Z,992.68
2017-09-08T05:43:08.579Z,992.69
2017-09-08T05:44:08.610Z,992.74
2017-09-08T05:45:08.626Z,992.69
2017-09-08T05:46:08.642Z,992.73
2017-09-08T05:47:08.665Z,992.67
2017-09-08T05:48:08.691Z,992.67
2017-09-08T05:49:08.709Z,992.69
2017-09-08T05:50:08.736Z,992.63
2017-09-08T05:51:08.762Z,992.66
2017-09-08T05:52:08.779Z,992.61
2017-09-08T05:53:08.792Z,992.56
2017-09-08T05:54:08.813Z,992.50
2017-09-08T05:55:08.840Z,992.51
2017-09-08T05:56:08.859Z,992.52
2017-09-08T05:57:08.888Z,992.47
2017-09-08T05:58:08.900Z,992.49
2017-09-08T05:59:08.929Z,992.46
2017-09-08T06:00:08.957Z,992.44
2017-09-08T06:01:08.971Z,992.41
2017-09-08T06:02:08.995Z,992.40
2017-09-08T06:03:09.022Z,992.38
2017-09-08T06:04:09.029Z,992.37
2017-09-08T06:05:09.064Z,992.38
2017-09-08T06:06:09.083Z,992.37
2017-09-08T06:07:09.094Z,992.35
2017-09-08T06:08:09.129Z,992.30
2017-09-08T06:09:09.140Z,992.32
2017-09-08T06:10:09.173Z,992.26
2017-09-08T06:11:09.183Z,992.28
2017-09-08T06:12:09.206Z,992.20
2017-09-08T06:13:09.225Z,992.21
2017-09-08T06:14:09.247Z,992.26
2017-09-08T06:15:09.270Z,992.22
2017-09-08T06:16:09.302Z,992.21
2017-09-08T06:17:09.323Z,992.21
2017-09-08T06:18:09.336Z,992.22
2017-09-08T06:19:09.356Z,992.21
2017-09-08T06:20:09.385Z,992.26
2017-09-08T06:21:09.403Z,992.25
2017-09-08T06:22:09.416Z,992.22
2017-09-08T06:23:09.445Z,992.16
2017-09-08T06:24:09.462Z,992.16
2017-09-08T06:25:09.492Z,992.10
2017-09-08T06:26:09.506Z,992.12
2017-09-08T06:27:09.523Z,992.11
2017-09-08T06:28:09.546Z,992.11
2017-09-08T06:29:09.574Z,992.05
2017-09-08T06:30:09.731Z,992.08
2017-09-08T06:31:09.618Z,992.04
2017-09-08T06:32:09.636Z,992.02
2017-09-08T06:33:09.660Z,992.04
2017-09-08T06:34:09.685Z,992.01
2017-09-08T06:35:09.716Z,991.99
2017-09-08T06:36:09.725Z,991.95
2017-09-08T06:37:09.752Z,991.99
2017-09-08T06:38:09.766Z,991.92
2017-09-08T06:39:09.789Z,991.93
2017-09-08T06:40:09.809Z,991.93
2017-09-08T06:41:09.833Z,991.92
2017-09-08T06:42:09.858Z,991.91
2017-09-08T06:43:09.886Z,991.93
2017-09-08T06:44:09.898Z,991.87
2017-09-08T06:45:09.918Z,991.86
2017-09-08T06:46:09.953Z,991.80
2017-09-08T06:47:09.962Z,991.83
2017-09-08T06:48:09.987Z,991.79
2017-09-08T06:49:10.012Z,991.85
2017-09-08T06:50:10.031Z,991.79
2017-09-08T06:51:10.051Z,991.85
2017-09-08T06:52:10.082Z,991.78
2017-09-08T06:53:10.090Z,991.80
2017-09-08T06:54:10.114Z,991.79
2017-09-08T06:55:10.145Z,991.77
2017-09-08T06:56:10.157Z,991.75
2017-09-08T06:57:10.180Z,991.78
2017-09-08T06:58:10.200Z,991.78
2017-09-08T06:59:10.227Z,991.80
2017-09-08T07:00:10.252Z,991.78
2017-09-08T07:01:10.268Z,991.76
2017-09-08T07:02:10.294Z,991.76
2017-09-08T07:03:10.322Z,991.75
2017-09-08T07:04:10.337Z,991.67
2017-09-08T07:05:10.351Z,991.74
2017-09-08T07:06:10.374Z,991.71
2017-09-08T07:07:10.395Z,991.81
2017-09-08T07:08:10.423Z,991.78
2017-09-08T07:09:10.444Z,991.72
2017-09-08T07:10:10.464Z,991.73
2017-09-08T07:11:10.491Z,991.69
2017-09-08T07:12:10.515Z,991.67
2017-09-08T07:13:10.529Z,991.74
2017-09-08T07:14:10.552Z,991.76
2017-09-08T07:15:10.574Z,991.76
2017-09-08T07:16:10.591Z,991.77
2017-09-08T07:17:10.619Z,991.75
2017-09-08T07:18:10.636Z,991.82
2017-09-08T07:19:10.657Z,991.74
2017-09-08T07:20:10.682Z,991.79
2017-09-08T07:21:10.834Z,991.74
2017-09-08T07:22:10.727Z,991.77
2017-09-08T07:23:10.746Z,991.73
2017-09-08T07:24:10.769Z,991.71
2017-09-08T07:25:10.796Z,991.74
2017-09-08T07:26:10.810Z,991.78
2017-09-08T07:27:10.844Z,991.73
2017-09-08T07:28:10.859Z,991.70
2017-09-08T07:29:10.879Z,991.67
2017-09-08T07:30:10.901Z,991.68
2017-09-08T07:31:10.921Z,991.71
2017-09-08T07:32:10.945Z,991.65
2017-09-08T07:33:10.966Z,991.70
2017-09-08T07:34:11.112Z,991.70
2017-09-08T07:35:11.012Z,991.68
2017-09-08T07:36:11.031Z,991.66
2017-09-08T07:37:11.065Z,991.67
2017-09-08T07:38:11.078Z,991.63
2017-09-08T07:39:11.101Z,991.62
2017-09-08T07:40:11.129Z,991.60
2017-09-08T07:41:11.150Z,991.63
2017-09-08T07:42:11.179Z,991.64
2017-09-08T07:43:11.186Z,991.65
2017-09-08T07:44:11.209Z,991.59
2017-09-08T07:45:11.234Z,991.57
2017-09-08T07:46:11.250Z,991.59
2017-09-08T07:47:11.280Z,991.59
2017-09-08T07:48:11.296Z,991.61
2017-09-08T07:49:11.330Z,991.62
2017-09-08T07:50:11.343Z,991.58
2017-09-08T07:51:11.363Z,991.64
2017-09-08T07:52:11.386Z,991.58
2017-09-08T07:53:11.408Z,991.61
2017-09-08T07:54:11.430Z,991.59
2017-09-08T07:55:11.461Z,991.64
2017-09-08T07:56:11.469Z,991.62
2017-09-08T07:57:11.494Z,991.67
2017-09-08T07:58:11.515Z,991.58
2017-09-08T07:59:11.537Z,991.63
2017-09-08T08:00:11.564Z,991.59
2017-09-08T08:01:11.583Z,991.60
2017-09-08T08:02:11.619Z,991.59
2017-09-08T08:03:11.631Z,991.65
2017-09-08T08:04:11.648Z,991.64
2017-09-08T08:05:11.670Z,991.63
2017-09-08T08:06:11.688Z,991.61
2017-09-08T08:07:11.714Z,991.59
2017-09-08T08:08:11.741Z,991.58
2017-09-08T08:09:11.760Z,991.57
2017-09-08T08:10:11.779Z,991.57
2017-09-08T08:11:11.826Z,991.58
2017-09-08T08:12:11.825Z,991.64
2017-09-08T08:13:11.874Z,991.64
2017-09-08T08:14:11.865Z,991.58
2017-09-08T08:15:11.895Z,991.54
2017-09-08T08:16:11.944Z,991.55
2017-09-08T08:17:11.935Z,991.59
2017-09-08T08:18:11.957Z,991.62
2017-09-08T08:19:11.983Z,991.51
2017-09-08T08:20:12.002Z,991.56
2017-09-08T08:21:12.157Z,991.53
2017-09-08T08:22:12.042Z,991.54
2017-09-08T08:23:12.073Z,991.51
2017-09-08T08:24:12.110Z,991.50
2017-09-08T08:25:12.107Z,991.54
2017-09-08T08:26:12.131Z,991.49
2017-09-08T08:27:12.154Z,991.53
2017-09-08T08:28:12.186Z,991.50
2017-09-08T08:29:12.201Z,991.47
2017-09-08T08:30:12.225Z,991.49
2017-09-08T08:31:12.242Z,991.46
2017-09-08T08:32:12.265Z,991.50
2017-09-08T08:33:12.289Z,991.52
2017-09-08T08:34:12.311Z,991.49
2017-09-08T08:35:12.332Z,991.50
2017-09-08T08:36:12.352Z,991.47
2017-09-08T08:37:12.376Z,991.49
2017-09-08T08:38:12.396Z,991.41
2017-09-08T08:39:12.560Z,991.42
2017-09-08T08:40:12.440Z,991.36
2017-09-08T08:41:12.481Z,991.37
2017-09-08T08:42:12.483Z,991.34
2017-09-08T08:43:12.505Z,991.32
2017-09-08T08:44:12.528Z,991.32
2017-09-08T08:45:12.590Z,991.32
2017-09-08T08:46:12.709Z,991.31
2017-09-08T08:47:12.601Z,991.32
2017-09-08T08:48:12.639Z,991.29
2017-09-08T08:49:12.659Z,991.31
2017-09-08T08:50:12.664Z,991.33
2017-09-08T08:51:12.718Z,991.28
2017-09-08T08:52:12.709Z,991.34
2017-09-08T08:53:12.727Z,991.33
2017-09-08T08:54:12.754Z,991.29
2017-09-08T08:55:12.770Z,991.30
2017-09-08T08:56:12.791Z,991.32
2017-09-08T08:57:12.827Z,991.34
2017-09-08T08:58:12.854Z,991.32
2017-09-08T08:59:12.863Z,991.33
2017-09-08T09:00:12.901Z,991.33
2017-09-08T09:01:12.909Z,991.34
2017-09-08T09:02:12.931Z,991.35
2017-09-08T09:03:12.957Z,991.36
2017-09-08T09:04:12.975Z,991.37
2017-09-08T09:05:12.997Z,991.32
2017-09-08T09:06:13.020Z,991.35
2017-09-08T09:07:13.047Z,991.32
2017-09-08T09:08:13.060Z,991.28
2017-09-08T09:09:13.094Z,991.19
2017-09-08T09:10:13.103Z,991.17
2017-09-08T09:11:13.128Z,991.19
2017-09-08T09:12:13.151Z,991.11
2017-09-08T09:13:13.176Z,991.14
2017-09-08T09:14:13.195Z,991.11
2017-09-08T09:15:13.218Z,991.03
2017-09-08T09:16:13.253Z,991.04
2017-09-08T09:17:13.392Z,991.00
2017-09-08T09:18:13.283Z,991.04
2017-09-08T09:19:13.306Z,991.00
2017-09-08T09:20:13.327Z,991.04
2017-09-08T09:21:13.351Z,991.01
2017-09-08T09:22:13.385Z,991.02
2017-09-08T09:23:13.393Z,991.00
2017-09-08T09:24:13.421Z,990.95
2017-09-08T09:25:13.443Z,990.91
2017-09-08T09:26:13.464Z,990.92
2017-09-08T09:27:13.490Z,990.92
2017-09-08T09:28:13.513Z,990.93
2017-09-08T09:29:13.530Z,990.90
2017-09-08T09:30:13.671Z,990.89
2017-09-08T09:31:13.573Z,990.88
2017-09-08T09:32:13.598Z,990.87
2017-09-08T09:33:13.630Z,990.87
2017-09-08T09:34:13.650Z,990.79
2017-09-08T09:35:13.678Z,990.80
2017-09-08T09:36:13.689Z,990.80
2017-09-08T09:37:13.862Z,990.72
2017-09-08T09:38:13.746Z,990.71
2017-09-08T09:39:13.762Z,990.68
2017-09-08T09:40:13.776Z,990.69
2017-09-08T09:41:13.804Z,990.66
2017-09-08T09:42:13.836Z,990.64
2017-09-08T09:43:13.841Z,990.67
2017-09-08T09:44:13.866Z,990.64
2017-09-08T09:45:13.903Z,990.60
2017-09-08T09:46:13.917Z,990.60
2017-09-08T09:47:14.068Z,990.57
2017-09-08T09:48:13.973Z,990.57
2017-09-08T09:49:13.996Z,990.54
2017-09-08T09:50:14.004Z,990.54
2017-09-08T09:51:14.034Z,990.57
2017-09-08T09:52:14.068Z,990.54
2017-09-08T09:53:14.076Z,990.57
2017-09-08T09:54:14.094Z,990.62
2017-09-08T09:55:14.122Z,990.60
2017-09-08T09:56:14.153Z,990.53
2017-09-08T09:57:14.180Z,990.53
2017-09-08T09:58:14.185Z,990.51
2017-09-08T09:59:14.212Z,990.47
2017-09-08T10:00:14.233Z,990.47
2017-09-08T10:01:14.257Z,990.49
2017-09-08T10:02:14.280Z,990.47
2017-09-08T10:03:14.307Z,990.45
2017-09-08T10:04:14.329Z,990.44
2017-09-08T10:05:14.349Z,990.42
2017-09-08T10:06:14.369Z,990.40
2017-09-08T10:07:14.395Z,990.42
2017-09-08T10:08:14.443Z,990.43
2017-09-08T10:09:14.445Z,990.39
2017-09-08T10:10:14.483Z,990.43
2017-09-08T10:11:14.487Z,990.49
2017-09-08T10:12:14.506Z,990.48
2017-09-08T10:13:14.531Z,990.41
2017-09-08T10:14:14.566Z,990.40
2017-09-08T10:15:14.578Z,990.44
2017-09-08T10:16:14.605Z,990.43
2017-09-08T10:17:14.676Z,990.40
2017-09-08T10:18:14.645Z,990.42
2017-09-08T10:19:14.681Z,990.41
2017-09-08T10:20:14.689Z,990.33
2017-09-08T10:21:14.739Z,990.30
2017-09-08T10:22:14.751Z,990.28
2017-09-08T10:23:14.760Z,990.30
2017-09-08T10:24:14.783Z,990.32
2017-09-08T10:25:14.809Z,990.15
2017-09-08T10:26:14.844Z,990.21
2017-09-08T10:27:14.852Z,990.18
2017-09-08T10:28:14.895Z,990.20
2017-09-08T10:29:14.907Z,990.17
2017-09-08T10:30:14.952Z,990.15
2017-09-08T10:31:14.952Z,990.19
2017-09-08T10:32:14.976Z,990.17
2017-09-08T10:33:15.006Z,990.17
2017-09-08T10:34:15.024Z,990.17
2017-09-08T10:35:15.043Z,990.24
2017-09-08T10:36:15.064Z,990.16
2017-09-08T10:37:15.092Z,990.15
2017-09-08T10:38:15.112Z,990.15
2017-09-08T10:39:15.264Z,990.16
2017-09-08T10:40:15.167Z,990.21
2017-09-08T10:41:15.186Z,990.12
2017-09-08T10:42:15.203Z,990.14
2017-09-08T10:43:15.237Z,990.10
2017-09-08T10:44:15.255Z,990.06
2017-09-08T10:45:15.281Z,990.10
2017-09-08T10:46:15.307Z,990.06
2017-09-08T10:47:15.335Z,990.09
2017-09-08T10:48:15.351Z,990.10
2017-09-08T10:49:15.373Z,990.00
2017-09-08T10:50:15.391Z,990.03
2017-09-08T10:51:15.415Z,990.07
2017-09-08T10:52:15.442Z,990.02
2017-09-08T10:53:15.472Z,990.11
2017-09-08T10:54:15.502Z,990.04
2017-09-08T10:55:15.510Z,990.03
2017-09-08T10:56:15.541Z,990.17
2017-09-08T10:57:15.578Z,990.05
2017-09-08T10:58:15.581Z,990.01
2017-09-08T10:59:15.605Z,989.98
2017-09-08T11:00:15.629Z,989.98
2017-09-08T11:01:15.652Z,989.97
2017-09-08T11:02:15.679Z,989.95
2017-09-08T11:03:15.699Z,989.91
2017-09-08T11:04:15.723Z,989.95
2017-09-08T11:05:15.744Z,989.94
2017-09-08T11:06:15.776Z,989.99
2017-09-08T11:07:15.796Z,989.99
2017-09-08T11:08:15.827Z,989.99
2017-09-08T11:09:15.844Z,990.02
2017-09-08T11:10:15.867Z,990.06
2017-09-08T11:11:15.888Z,989.98
2017-09-08T11:12:15.913Z,990.03
2017-09-08T11:13:15.935Z,990.06
2017-09-08T11:14:15.961Z,990.03
2017-09-08T11:15:15.992Z,990.02
2017-09-08T11:16:16.004Z,990.01
2017-09-08T11:17:16.033Z,990.03
2017-09-08T11:18:16.053Z,990.03
2017-09-08T11:19:16.072Z,990.06
2017-09-08T11:20:16.100Z,990.08
2017-09-08T11:21:16.122Z,990.06
2017-09-08T11:22:16.149Z,990.03
2017-09-08T11:23:16.170Z,990.05
2017-09-08T11:24:16.216Z,990.03
2017-09-08T11:25:16.220Z,990.06
2017-09-08T11:26:16.253Z,990.02
2017-09-08T11:27:16.263Z,990.00
2017-09-08T11:28:16.293Z,989.99
2017-09-08T11:29:16.309Z,990.00
2017-09-08T11:30:16.334Z,989.93
2017-09-08T11:31:16.359Z,989.96
2017-09-08T11:32:16.382Z,989.92
2017-09-08T11:33:16.402Z,989.91
2017-09-08T11:34:16.433Z,989.89
2017-09-08T11:35:16.460Z,989.91
2017-09-08T11:36:16.477Z,989.93
2017-09-08T11:37:16.516Z,989.91
2017-09-08T11:38:16.522Z,989.93
2017-09-08T11:39:16.551Z,989.95
2017-09-08T11:40:16.573Z,989.96
2017-09-08T11:41:16.599Z,990.02
2017-09-08T11:42:16.619Z,989.93
2017-09-08T11:43:16.638Z,989.95
2017-09-08T11:44:16.663Z,990.00
2017-09-08T11:45:16.687Z,989.92
2017-09-08T11:46:16.713Z,989.95
2017-09-08T11:47:16.733Z,989.93
2017-09-08T11:48:16.783Z,989.93
2017-09-08T11:49:16.781Z,989.95
2017-09-08T11:50:16.806Z,989.83
2017-09-08T11:51:16.830Z,989.94
2017-09-08T11:52:16.886Z,989.87
2017-09-08T11:53:16.876Z,989.88
2017-09-08T11:54:16.905Z,989.85
2017-09-08T11:55:16.926Z,989.87
2017-09-08T11:56:16.948Z,989.87
2017-09-08T11:57:16.972Z,989.86
2017-09-08T11:58:17.000Z,989.86
2017-09-08T11:59:17.018Z,989.85
2017-09-08T12:00:17.049Z,989.88
2017-09-08T12:01:17.068Z,989.86
2017-09-08T12:02:17.103Z,989.83
2017-09-08T12:03:17.117Z,989.87
2017-09-08T12:04:17.136Z,989.87
2017-09-08T12:05:17.226Z,989.84
2017-09-08T12:06:17.196Z,989.87
2017-09-08T12:07:17.227Z,989.82
2017-09-08T12:08:17.233Z,989.87
2017-09-08T12:09:17.252Z,989.82
2017-09-08T12:10:17.275Z,989.86
2017-09-08T12:11:17.300Z,989.83
2017-09-08T12:12:17.322Z,989.84
2017-09-08T12:13:17.385Z,989.81
2017-09-08T12:14:17.371Z,989.86
2017-09-08T12:15:17.398Z,989.80
2017-09-08T12:16:17.553Z,989.79
2017-09-08T12:17:17.483Z,989.78
2017-09-08T12:18:17.463Z,989.75
2017-09-08T12:19:17.492Z,989.75
2017-09-08T12:20:17.513Z,989.77
2017-09-08T12:21:17.541Z,989.75
2017-09-08T12:22:17.572Z,989.76
2017-09-08T12:23:17.580Z,989.72
2017-09-08T12:24:17.612Z,989.73
2017-09-08T12:25:17.652Z,989.71
2017-09-08T12:26:17.662Z,989.68
2017-09-08T12:27:17.676Z,989.73
2017-09-08T12:28:17.706Z,989.67